Main page
METAR-TAF:

METAR-TAF

Airports :

Kuressaare Airport

Kuressaare, Estonia

latitude: 58-13-48N, longitude: 022-30-34E, elevation: 4 m

Current weather observation

The report was made 23 minutes ago, at 18:50 UTC
Wind 6 kt from the North
Temperature 19°C
Humidity 83%
Pressure 1015 hPa
Visibility 10 km or more

METAR: EEKE 241850Z AUTO 35006KT 9999NDV NSC 19/16 Q1015

Time: 22:13 (19:13 UTC)

Forecast

The report was made 5 hours and 13 minutes ago, at 14:00 UTC
Forecast valid from 24 at 15 UTC to 24 at 21 UTC
Wind 2 kt from variable directions
Visibility 10 km or more
Scattered clouds at a height of 2500 ft
Probability 40% :
Temporary
from 24 at 15 UTC to 24 at 18 UTC
Wind 10 kt from the South
Broken clouds at a height of 1000 ft
Temporary
from 24 at 18 UTC to 24 at 21 UTC
Scattered clouds at a height of 2500 ft, Cumulonimbus.

TAF: EEKE 241400Z 2415/2421 VRB02KT 9999 SCT025 PROB40 TEMPO 2415/2418 19010KT BKN010 TEMPO 2418/2421 SCT025CB

Weather observations and forecasts of more than 4000 airports (METAR and TAF reports).

The available stations are represented by yellow and red dots on the map.

Hover mouse over dot to see the name of the station.

Then click to see weather observations and forecasts.

To change the map : click on the green buttons with a black cross to zoom in, on the green button with a dash to zoom out, or on the green arrows for adjacent maps.


METAR-TAF: